< < Back
Terminal Aerodrome Forecast


Current Version              Previous Versions:   1  2  3  4  5  6  7  8  9  

Terminal Aerodrome Forecast

085
FTUS42 KFFC 252300
TAFFTY
TAF
KFTY 252333Z 2600/2624 31005KT P6SM FEW040
     FM260300 31003KT P6SM SCT025
     FM261300 32007KT P6SM FEW250
     FM262300 00000KT P6SM SKC=

Latest METAR

039
SAUS70 KWBC 260600 RRU
MTRFTY
METAR KFTY 260553Z 16003KT 10SM CLR 15/11 A3001 RMK AO2 SLP157 T01500111
10172 20117 58011


USA.gov is the U.S. government's official web portal to all federal, state and local government web resources and services.